Latest Weather Observations for Coober Pedy Airport

IDS60801

Issued at 7:01 pm CST Wednesday 23 August 2017 (issued every 30 minutes, with the page automatically refreshed every 10 minutes)

About weather observations | Map of weather stations | Latest weather observations for SA | Other Formats
Station Details ID: 016090 Name: COOBER PEDY AIRPORT Lat: -29.03 Lon: 134.72 Height: 225.0 m
Data from the previous 72 hours. | See also: Recent months at Coober Pedy Airport
Date/Time
CST
Temp
°C
App
Temp
°C
Dew
Point
°C
Rel
Hum
%
Delta-T
°C
Wind Press
QNH
hPa
Press
MSL
hPa
Rain since
9am
mm
Dir  Spd
km/h
Gust
km/h
Spd
kts
Gust
kts
23/07:00pm 17.4 12.5 -3.4 24 8.4 S 13 15 7 8 1023.7 1023.6 0.0
23/06:30pm 19.0 14.5 -3.2 22 9.2 S 11 15 6 8 1023.6 1023.5 0.0
23/06:00pm 20.5 16.0 -3.2 20 9.9 SSE 11 13 6 7 1023.4 1023.3 0.0
23/05:30pm 21.2 16.7 -3.3 19 10.3 SSE 11 19 6 10 1022.9 1022.7 0.0
23/05:00pm 21.7 16.5 -2.9 19 10.5 SSE 15 24 8 13 1022.5 1022.3 0.0
23/04:30pm 21.8 17.0 -2.8 19 10.5 SSE 13 33 7 18 1022.3 1022.1 0.0
23/04:00pm 21.8 17.0 -2.8 19 10.6 ESE 13 19 7 10 1022.4 1022.2 0.0
23/03:30pm 21.7 17.3 -2.2 20 10.3 ESE 11 20 6 11 1022.5 1022.3 0.0
23/03:00pm 21.6 17.5 -3.0 19 10.5 E 9 17 5 9 1022.4 1022.2 0.0
23/02:30pm 22.2 18.2 -2.5 19 10.7 SSE 9 20 5 11 1022.4 1022.2 0.0
23/02:00pm 21.1 16.0 -2.0 21 10.0 SE 15 24 8 13 1022.7 1022.5 0.0
23/01:30pm 21.3 15.7 -2.5 20 10.2 SE 17 22 9 12 1023.0 1022.8 0.0
23/01:00pm 20.6 15.4 -2.5 21 9.9 ESE 15 22 8 12 1023.4 1023.3 0.0
23/12:30pm 20.5 15.8 -1.9 22 9.6 SE 13 20 7 11 1023.7 1023.6 0.0
23/12:00pm 20.1 15.6 -0.5 25 9.1 ESE 13 24 7 13 1024.2 1024.1 0.0
23/11:30am 19.3 16.0 0.4 28 8.4 E 7 15 4 8 1024.9 1024.8 0.0
23/11:00am 18.7 14.4 0.8 30 8.0 E 13 17 7 9 1024.8 1024.7 0.0
23/10:30am 18.6 15.2 1.6 32 7.7 E 9 15 5 8 1025.1 1025.0 0.0
23/10:00am 17.9 14.3 3.0 37 7.0 NNE 11 15 6 8 1025.1 1025.0 0.0
23/09:30am 16.8 12.9 3.5 41 6.2 ENE 13 17 7 9 1024.8 1024.7 0.0
23/09:00am 15.7 12.2 3.5 44 5.6 ENE 11 15 6 8 1024.8 1024.7 0.0
23/08:30am 13.7 10.5 3.2 49 4.7 ENE 9 11 5 6 1025.0 1024.9 0.0
23/08:00am 12.0 8.7 2.7 53 4.1 ENE 9 11 5 6 1024.1 1024.0 0.0
23/07:30am 9.6 5.5 2.2 60 3.1 NE 13 15 7 8 1023.9 1023.8 0.0
23/07:00am 7.3 3.4 1.4 66 2.4 ENE 11 15 6 8 1023.4 1023.3 0.0
23/06:30am 8.1 3.1 1.3 62 2.8 E 17 19 9 10 1023.0 1022.8 0.0
23/06:00am 8.4 3.8 1.3 61 2.9 ESE 15 15 8 8 1023.0 1022.8 0.0
23/05:30am 8.9 4.3 1.6 60 3.0 E 15 15 8 8 1022.8 1022.6 0.0
23/05:00am 9.0 4.3 1.2 58 3.2 E 15 17 8 9 1022.5 1022.3 0.0
23/04:30am 9.4 4.4 1.6 58 3.3 ESE 17 19 9 10 1021.8 1021.7 0.0
23/04:00am 9.5 4.5 1.2 56 3.5 ESE 17 19 9 10 1021.8 1021.7 0.0
23/03:30am 9.4 4.3 0.8 55 3.5 ESE 17 17 9 9 1021.7 1021.6 0.0
23/03:00am 10.3 6.0 1.2 53 3.8 ESE 13 15 7 8 1022.2 1022.0 0.0
23/02:30am 11.4 6.8 1.6 51 4.2 E 15 17 8 9 1022.4 1022.2 0.0
23/02:00am 12.1 8.0 2.0 50 4.4 E 13 15 7 8 1022.4 1022.2 0.0
23/01:30am 11.5 7.1 0.6 47 4.5 E 13 15 7 8 1022.3 1022.1 0.0
23/01:00am 11.6 7.3 1.3 49 4.4 E 13 13 7 7 1022.5 1022.3 0.0
23/12:30am 11.5 7.1 0.6 47 4.5 ESE 13 13 7 7 1022.5 1022.3 0.0
23/12:00am 11.3 7.0 0.7 48 4.4 ESE 13 15 7 8 1022.3 1022.1 0.0
 
Date/Time
CST
Temp
°C
App
Temp
°C
Dew
Point
°C
Rel
Hum
%
Delta-T
°C
Wind Press
QNH
hPa
Press
MSL
hPa
Rain since
9am
mm
Dir  Spd
km/h
Gust
km/h
Spd
kts
Gust
kts
22/11:30pm 12.6 9.1 1.0 45 4.9 ESE 9 11 5 6 1022.5 1022.3 0.0
22/11:00pm 12.7 9.1 0.5 43 5.2 ESE 9 11 5 6 1022.6 1022.4 0.0
22/10:30pm 13.7 10.2 1.0 42 5.5 E 9 11 5 6 1023.0 1022.8 0.0
22/10:00pm 13.6 9.6 0.6 41 5.6 E 11 13 6 7 1022.7 1022.5 0.0
22/09:30pm 14.2 10.2 0.8 40 5.8 E 11 11 6 6 1022.8 1022.6 0.0
22/09:00pm 14.1 10.5 0.4 39 5.8 E 9 11 5 6 1022.5 1022.3 0.0
22/08:30pm 15.1 11.1 0.5 37 6.3 ESE 11 11 6 6 1022.3 1022.1 0.0
22/08:00pm 15.7 12.1 0.7 36 6.6 ESE 9 11 5 6 1022.1 1021.9 0.0
22/07:30pm 15.7 12.1 0.3 35 6.6 ENE 9 9 5 5 1021.9 1021.8 0.0
22/07:00pm 16.5 12.8 0.2 33 7.1 E 9 11 5 6 1021.7 1021.6 0.0
22/06:30pm 17.5 14.4 1.1 33 7.3 E 7 11 4 6 1021.7 1021.6 0.0
22/06:00pm 18.3 16.1 1.3 32 7.7 ENE 2 11 1 6 1021.4 1021.3 0.0
22/05:30pm 19.0 15.2 1.5 31 8.0 E 11 17 6 9 1021.2 1021.1 0.0
22/05:00pm 19.0 15.9 1.1 30 8.1 S 7 13 4 7 1021.3 1021.2 0.0
22/04:30pm 19.3 15.9 1.8 31 8.0 S 9 17 5 9 1020.8 1020.7 0.0
22/04:00pm 18.9 15.5 1.9 32 7.8 S 9 15 5 8 1021.1 1021.0 0.0
22/03:30pm 19.2 15.8 1.7 31 8.0 SSE 9 17 5 9 1021.1 1021.0 0.0
22/03:00pm 18.7 16.0 2.5 34 7.5 S 6 11 3 6 1021.2 1021.1 0.0
22/02:30pm 18.7 15.9 2.1 33 7.6 SSE 6 20 3 11 1021.4 1021.3 0.0
22/02:00pm 18.3 15.6 3.8 38 6.9 ESE 7 15 4 8 1021.4 1021.3 0.0
22/01:30pm 17.4 14.3 3.7 40 6.4 SSE 9 17 5 9 1021.9 1021.8 0.0
22/01:00pm 17.0 13.5 3.7 41 6.3 SSE 11 17 6 9 1022.7 1022.5 0.0
22/12:30pm 16.8 14.2 4.2 43 5.9 SSE 7 17 4 9 1023.2 1023.1 0.0
22/12:00pm 16.1 13.0 5.4 49 5.2 ESE 11 17 6 9 1023.4 1023.3 0.0
22/11:30am 14.9 12.0 4.9 51 4.7 SE 9 17 5 9 1023.8 1023.7 0.0
22/11:00am 14.9 11.5 6.0 55 4.3 SSE 13 19 7 10 1024.0 1023.9 0.0
22/10:30am 14.4 10.9 5.5 55 4.2 SE 13 20 7 11 1024.1 1024.0 0.0
22/10:00am 14.0 9.8 5.9 58 3.9 SSE 17 24 9 13 1024.4 1024.3 0.0
22/09:30am 13.2 8.5 5.9 61 3.5 SSE 20 26 11 14 1024.4 1024.3 0.0
22/09:00am 12.0 6.8 5.6 65 3.0 SE 22 26 12 14 1024.2 1024.1 0.0
22/08:30am 10.6 5.7 5.2 69 2.5 SE 20 24 11 13 1023.7 1023.6 0.0
22/08:00am 8.9 4.5 4.7 75 1.9 SSE 17 20 9 11 1023.3 1023.2 0.0
22/07:30am 6.6 2.8 3.9 83 1.2 SSE 13 15 7 8 1023.0 1022.8 0.0
22/07:00am 3.9 0.4 1.3 83 1.0 SW 9 11 5 6 1023.1 1023.0 0.0
22/06:30am 5.7 2.1 2.9 82 1.2 S 11 13 6 7 1022.9 1022.7 0.0
22/06:00am 5.3 1.6 2.1 80 1.3 S 11 15 6 8 1022.5 1022.3 0.0
22/05:30am 4.9 2.1 1.9 81 1.2 SSW 6 9 3 5 1022.4 1022.2 0.0
22/05:00am 6.6 3.4 3.0 78 1.5 S 9 11 5 6 1022.1 1021.9 0.0
22/04:30am 7.4 4.3 3.6 77 1.6 SSE 9 11 5 6 1021.6 1021.5 0.0
22/04:00am 7.8 4.0 3.8 76 1.7 SSE 13 15 7 8 1021.3 1021.2 0.0
22/03:30am 8.3 4.5 3.9 74 1.9 SSE 13 15 7 8 1021.1 1021.0 0.0
22/03:00am 8.5 3.9 3.9 73 2.0 S 17 20 9 11 1021.0 1020.9 0.0
22/02:30am 9.0 4.5 4.0 71 2.2 S 17 19 9 10 1021.2 1021.1 0.0
22/02:00am 9.5 5.0 4.3 70 2.3 SSE 17 19 9 10 1021.3 1021.2 0.0
22/01:30am 10.0 5.0 4.4 68 2.5 S 20 22 11 12 1021.2 1021.1 0.0
22/01:00am 10.0 5.5 4.2 67 2.6 S 17 20 9 11 1021.5 1021.4 0.0
22/12:30am 10.6 5.8 4.5 66 2.8 S 19 20 10 11 1021.5 1021.4 0.0
22/12:00am 9.9 5.7 3.9 66 2.7 S 15 17 8 9 1021.7 1021.6 0.0
 
Date/Time
CST
Temp
°C
App
Temp
°C
Dew
Point
°C
Rel
Hum
%
Delta-T
°C
Wind Press
QNH
hPa
Press
MSL
hPa
Rain since
9am
mm
Dir  Spd
km/h
Gust
km/h
Spd
kts
Gust
kts
21/11:30pm 10.7 6.6 4.2 64 2.9 S 15 15 8 8 1021.9 1021.8 0.0
21/11:00pm 11.4 7.3 4.2 61 3.3 S 15 17 8 9 1021.8 1021.7 0.0
21/10:30pm 12.1 7.6 4.3 59 3.6 S 17 20 9 11 1021.7 1021.6 0.0
21/10:00pm 12.7 7.9 4.4 57 3.8 S 19 24 10 13 1021.6 1021.5 0.0
21/09:30pm 13.3 8.2 4.2 54 4.2 S 20 26 11 14 1021.4 1021.3 0.0
21/09:00pm 13.1 8.9 3.7 53 4.3 SSW 15 17 8 9 1021.1 1021.0 0.0
21/08:30pm 13.8 9.6 3.9 51 4.5 SSW 15 19 8 10 1020.9 1020.8 0.0
21/08:00pm 14.5 10.3 3.9 49 4.9 SSW 15 17 8 9 1020.5 1020.4 0.0
21/07:30pm 15.4 10.5 3.9 46 5.3 SW 19 20 10 11 1020.0 1019.9 0.0
21/07:00pm 16.4 10.6 4.4 45 5.7 SW 24 30 13 16 1019.7 1019.6 0.0
21/06:30pm 17.0 10.8 4.3 43 6.0 SSW 26 33 14 18 1019.1 1018.9 0.0
21/06:00pm 17.8 11.2 4.0 40 6.6 SW 28 33 15 18 1018.7 1018.5 0.0
21/05:30pm 18.5 11.2 4.3 39 6.8 SW 32 41 17 22 1018.4 1018.2 0.0
21/05:00pm 19.2 11.6 3.8 36 7.4 SSW 33 43 18 23 1018.0 1017.8 0.0
21/04:30pm 19.2 11.1 3.4 35 7.5 SW 35 46 19 25 1017.8 1017.6 0.0
21/04:00pm 19.3 11.7 3.9 36 7.4 SW 33 43 18 23 1017.7 1017.5 0.0
21/03:30pm 19.5 11.5 3.6 35 7.6 SW 35 44 19 24 1017.4 1017.2 0.0
21/03:00pm 20.0 12.1 4.1 35 7.7 SW 35 48 19 26 1017.2 1017.1 0.0
21/02:30pm 20.1 12.7 5.0 37 7.4 SW 33 46 18 25 1017.5 1017.3 0.0
21/02:00pm 19.3 11.1 5.0 39 7.0 SW 37 52 20 28 1017.6 1017.4 0.0
21/01:33pm 19.6 11.8 4.9 38 7.2 WSW 35 63 19 34 1017.5 1017.3 0.0
21/01:30pm 19.5 12.1 4.8 38 7.2 SW 33 46 18 25 1017.7 1017.5 0.0
21/01:14pm 19.9 12.5 5.2 38 7.3 SW 33 52 18 28 1017.7 1017.5 0.0
21/01:00pm 19.2 11.5 5.3 40 6.9 SW 35 48 19 26 1017.9 1017.7 0.0
21/12:30pm 18.5 10.5 5.7 43 6.3 SW 37 52 20 28 1018.2 1018.0 0.0
21/12:00pm 18.0 10.0 5.9 45 6.0 SW 37 48 20 26 1018.2 1018.0 0.0
21/11:30am 17.3 9.4 6.2 48 5.5 SW 37 46 20 25 1018.3 1018.1 0.0
21/11:00am 16.3 8.0 6.2 51 5.0 SW 39 50 21 27 1018.2 1018.0 0.0
21/10:30am 15.9 6.9 6.3 53 4.7 SW 43 57 23 31 1018.1 1017.9 0.0
21/10:00am 14.9 6.7 6.7 58 4.0 SW 39 50 21 27 1018.1 1017.9 0.0
21/09:30am 14.4 5.9 7.0 61 3.6 SW 41 50 22 27 1017.9 1017.7 0.0
21/09:00am 13.9 5.8 7.2 64 3.3 SW 39 52 21 28 1017.7 1017.5 0.0
21/08:30am 12.6 5.8 7.1 69 2.7 WSW 32 41 17 22 1017.1 1017.0 0.0
21/08:00am 11.5 6.2 6.6 72 2.3 WSW 24 30 13 16 1016.8 1016.7 0.0
21/07:30am 10.1 4.8 5.1 71 2.3 WSW 22 26 12 14 1016.2 1016.1 0.0
21/07:00am 9.2 4.0 3.8 69 2.4 WSW 20 24 11 13 1015.7 1015.6 0.0
21/06:30am 10.0 4.5 4.2 67 2.6 WSW 22 26 12 14 1015.3 1015.1 0.0
21/06:00am 10.2 5.0 3.7 64 2.9 WSW 20 26 11 14 1014.8 1014.6 0.0
21/05:30am 10.9 5.0 3.7 61 3.2 WSW 24 28 13 15 1014.3 1014.1 0.0
21/05:00am 11.2 4.9 3.5 59 3.4 WSW 26 32 14 17 1013.9 1013.7 0.0
21/04:30am 11.2 5.1 2.8 56 3.7 WSW 24 32 13 17 1013.6 1013.4 0.0
21/04:00am 10.8 5.3 2.1 55 3.7 WSW 20 24 11 13 1013.5 1013.3 0.0
21/03:30am 11.3 5.8 2.1 53 4.0 WSW 20 24 11 13 1013.4 1013.2 0.0
21/03:00am 11.8 6.3 1.7 50 4.4 WSW 20 24 11 13 1013.6 1013.4 0.0
21/02:30am 12.2 6.6 1.2 47 4.7 WSW 20 28 11 15 1013.8 1013.6 0.0
21/02:00am 12.6 6.6 1.0 45 5.0 WSW 22 28 12 15 1013.8 1013.6 0.0
21/01:30am 12.6 6.4 0.0 42 5.3 WSW 22 28 12 15 1013.8 1013.6 0.0
21/01:00am 12.4 6.5 -0.8 40 5.4 WSW 20 22 11 12 1013.9 1013.7 0.0
21/12:30am 13.7 7.1 -0.7 37 6.0 SW 24 28 13 15 1014.2 1014.0 0.0
21/12:00am 15.0 7.7 -0.3 35 6.5 WSW 28 37 15 20 1014.1 1013.9 0.0
 
Date/Time
CST
Temp
°C
App
Temp
°C
Dew
Point
°C
Rel
Hum
%
Delta-T
°C
Wind Press
QNH
hPa
Press
MSL
hPa
Rain since
9am
mm
Dir  Spd
km/h
Gust
km/h
Spd
kts
Gust
kts
20/11:30pm 12.3 7.5 0.1 43 5.1 WSW 15 15 8 8 1014.0 1013.8 0.0
20/11:00pm 14.5 9.3 0.4 38 6.1 SW 17 22 9 12 1014.1 1013.9 0.0
20/10:30pm 14.8 10.1 0.6 38 6.1 SSW 15 17 8 9 1014.0 1013.8 0.0
20/10:00pm 16.2 10.8 1.1 36 6.7 SSW 19 24 10 13 1014.0 1013.8 0.0
20/09:30pm 17.7 11.8 1.7 34 7.3 SW 22 28 12 15 1014.0 1013.8 0.0
20/09:00pm 19.0 11.7 2.4 33 7.7 SW 30 37 16 20 1013.7 1013.5 0.0
20/08:36pm 19.7 10.7 2.6 32 8.0 SW 39 57 21 31 1013.5 1013.3 0.0
20/08:30pm 20.0 10.1 2.8 32 8.1 SW 44 57 24 31 1013.3 1013.1 0.0
20/08:19pm 20.6 12.9 3.3 32 8.3 SW 33 56 18 30 1012.9 1012.7 0.0
20/08:00pm 21.0 14.2 0.8 26 9.2 SW 26 39 14 21 1012.5 1012.4 0.0
20/07:57pm 20.8 15.0 0.1 25 9.3 SW 20 39 11 21 1012.3 1012.2 0.0
20/07:30pm 19.0 14.4 -4.4 20 9.5 WSW 11 19 6 10 1011.9 1011.8 0.0

Other Formats:

Comma delimited format used in spreadsheet applications
http://www.bom.gov.au/fwo/IDS60801/IDS60801.95458.axf

JavaScript Object Notation format (JSON) in row-major order
http://www.bom.gov.au/fwo/IDS60801/IDS60801.95458.json